sensor_id;sensor_type;location;lat;lon;timestamp;temperature;humidity
6443;DHT22;3254;47.372;8.512;2023-05-20T00:00:22;11.80;1.00
6443;DHT22;3254;47.372;8.512;2023-05-20T00:02:47;11.70;1.00
6443;DHT22;3254;47.372;8.512;2023-05-20T00:05:13;11.70;1.00
6443;DHT22;3254;47.372;8.512;2023-05-20T00:07:39;11.70;1.00
6443;DHT22;3254;47.372;8.512;2023-05-20T00:10:05;11.60;1.00
6443;DHT22;3254;47.372;8.512;2023-05-20T00:12:31;11.60;1.00
6443;DHT22;3254;47.372;8.512;2023-05-20T00:14:56;11.60;1.00
6443;DHT22;3254;47.372;8.512;2023-05-20T00:17:22;11.70;1.00
6443;DHT22;3254;47.372;8.512;2023-05-20T00:19:48;11.70;1.00
6443;DHT22;3254;47.372;8.512;2023-05-20T00:22:13;11.60;1.00
6443;DHT22;3254;47.372;8.512;2023-05-20T00:24:39;11.60;1.00
6443;DHT22;3254;47.372;8.512;2023-05-20T00:27:04;11.50;1.00
6443;DHT22;3254;47.372;8.512;2023-05-20T00:29:30;11.40;1.00
6443;DHT22;3254;47.372;8.512;2023-05-20T00:31:56;11.40;1.00
6443;DHT22;3254;47.372;8.512;2023-05-20T00:34:21;11.20;1.00
6443;DHT22;3254;47.372;8.512;2023-05-20T00:36:47;11.10;1.00
6443;DHT22;3254;47.372;8.512;2023-05-20T00:39:12;11.00;1.00
6443;DHT22;3254;47.372;8.512;2023-05-20T00:41:38;10.90;1.00
6443;DHT22;3254;47.372;8.512;2023-05-20T00:44:03;10.90;1.00
6443;DHT22;3254;47.372;8.512;2023-05-20T00:46:29;10.80;1.00
6443;DHT22;3254;47.372;8.512;2023-05-20T00:48:55;10.70;1.00
6443;DHT22;3254;47.372;8.512;2023-05-20T00:51:20;10.60;1.00
6443;DHT22;3254;47.372;8.512;2023-05-20T00:53:46;10.70;1.00
6443;DHT22;3254;47.372;8.512;2023-05-20T00:56:12;10.60;1.00
6443;DHT22;3254;47.372;8.512;2023-05-20T00:58:39;10.60;1.00
6443;DHT22;3254;47.372;8.512;2023-05-20T01:01:05;10.60;1.00
6443;DHT22;3254;47.372;8.512;2023-05-20T01:03:31;10.50;1.00
6443;DHT22;3254;47.372;8.512;2023-05-20T01:05:56;10.40;1.00
6443;DHT22;3254;47.372;8.512;2023-05-20T01:08:23;10.30;1.00
6443;DHT22;3254;47.372;8.512;2023-05-20T01:11:07;10.30;1.00
6443;DHT22;3254;47.372;8.512;2023-05-20T01:13:39;10.30;1.00
6443;DHT22;3254;47.372;8.512;2023-05-20T01:16:07;10.30;1.00
6443;DHT22;3254;47.372;8.512;2023-05-20T01:18:34;10.30;1.00
6443;DHT22;3254;47.372;8.512;2023-05-20T01:21:01;10.20;1.00
6443;DHT22;3254;47.372;8.512;2023-05-20T01:23:38;10.10;1.00
6443;DHT22;3254;47.372;8.512;2023-05-20T01:26:04;10.10;1.00
6443;DHT22;3254;47.372;8.512;2023-05-20T01:28:34;10.00;1.00
6443;DHT22;3254;47.372;8.512;2023-05-20T01:31:02;10.00;1.00
6443;DHT22;3254;47.372;8.512;2023-05-20T01:33:29;10.00;1.00
6443;DHT22;3254;47.372;8.512;2023-05-20T01:35:56;10.10;1.00
6443;DHT22;3254;47.372;8.512;2023-05-20T01:38:23;10.20;1.00
6443;DHT22;3254;47.372;8.512;2023-05-20T01:40:49;10.20;1.00
6443;DHT22;3254;47.372;8.512;2023-05-20T01:43:16;10.20;1.00
6443;DHT22;3254;47.372;8.512;2023-05-20T01:45:43;10.40;1.00
6443;DHT22;3254;47.372;8.512;2023-05-20T01:48:10;10.50;1.00
6443;DHT22;3254;47.372;8.512;2023-05-20T01:50:36;10.50;1.00
6443;DHT22;3254;47.372;8.512;2023-05-20T01:53:02;10.40;1.00
6443;DHT22;3254;47.372;8.512;2023-05-20T01:55:28;10.30;1.00
6443;DHT22;3254;47.372;8.512;2023-05-20T01:57:53;10.20;1.00
6443;DHT22;3254;47.372;8.512;2023-05-20T02:00:19;10.10;1.00
6443;DHT22;3254;47.372;8.512;2023-05-20T02:02:45;10.10;1.00
6443;DHT22;3254;47.372;8.512;2023-05-20T02:05:10;10.00;1.00
6443;DHT22;3254;47.372;8.512;2023-05-20T02:07:36;9.90;1.00
6443;DHT22;3254;47.372;8.512;2023-05-20T02:10:02;9.80;1.00
6443;DHT22;3254;47.372;8.512;2023-05-20T02:12:27;9.80;1.00
6443;DHT22;3254;47.372;8.512;2023-05-20T02:14:53;9.80;1.00
6443;DHT22;3254;47.372;8.512;2023-05-20T02:17:19;9.80;1.00
6443;DHT22;3254;47.372;8.512;2023-05-20T02:19:45;9.80;1.00
6443;DHT22;3254;47.372;8.512;2023-05-20T02:22:11;9.70;1.00
6443;DHT22;3254;47.372;8.512;2023-05-20T02:24:37;9.60;1.00
6443;DHT22;3254;47.372;8.512;2023-05-20T02:27:03;9.60;1.00
6443;DHT22;3254;47.372;8.512;2023-05-20T02:29:29;9.50;1.00
6443;DHT22;3254;47.372;8.512;2023-05-20T02:31:55;9.40;1.00
6443;DHT22;3254;47.372;8.512;2023-05-20T02:34:20;9.30;4.10
6443;DHT22;3254;47.372;8.512;2023-05-20T02:36:46;9.20;7.60
6443;DHT22;3254;47.372;8.512;2023-05-20T02:39:12;9.20;11.50
6443;DHT22;3254;47.372;8.512;2023-05-20T02:41:37;9.20;15.20
6443;DHT22;3254;47.372;8.512;2023-05-20T02:44:03;9.20;17.80
6443;DHT22;3254;47.372;8.512;2023-05-20T02:46:30;9.10;19.80
6443;DHT22;3254;47.372;8.512;2023-05-20T02:48:55;9.00;25.30
6443;DHT22;3254;47.372;8.512;2023-05-20T02:51:22;8.90;31.10
6443;DHT22;3254;47.372;8.512;2023-05-20T02:53:47;8.80;37.20
6443;DHT22;3254;47.372;8.512;2023-05-20T02:56:13;8.80;47.00
6443;DHT22;3254;47.372;8.512;2023-05-20T02:58:38;8.80;51.50
6443;DHT22;3254;47.372;8.512;2023-05-20T03:01:04;8.70;54.30
6443;DHT22;3254;47.372;8.512;2023-05-20T03:03:30;8.60;56.90
6443;DHT22;3254;47.372;8.512;2023-05-20T03:05:55;8.50;67.00
6443;DHT22;3254;47.372;8.512;2023-05-20T03:08:22;8.50;77.90
6443;DHT22;3254;47.372;8.512;2023-05-20T03:10:48;8.50;84.70
6443;DHT22;3254;47.372;8.512;2023-05-20T03:13:13;8.60;90.40
6443;DHT22;3254;47.372;8.512;2023-05-20T03:15:42;8.60;90.70
6443;DHT22;3254;47.372;8.512;2023-05-20T03:18:11;8.60;90.80
6443;DHT22;3254;47.372;8.512;2023-05-20T03:20:38;8.60;92.20
6443;DHT22;3254;47.372;8.512;2023-05-20T03:23:04;8.60;92.10
6443;DHT22;3254;47.372;8.512;2023-05-20T03:25:30;8.60;91.80
6443;DHT22;3254;47.372;8.512;2023-05-20T03:27:56;8.50;92.50
6443;DHT22;3254;47.372;8.512;2023-05-20T03:30:23;8.50;95.90
6443;DHT22;3254;47.372;8.512;2023-05-20T03:32:49;8.60;97.40
6443;DHT22;3254;47.372;8.512;2023-05-20T03:35:15;8.50;97.30
6443;DHT22;3254;47.372;8.512;2023-05-20T03:37:41;8.50;98.80
6443;DHT22;3254;47.372;8.512;2023-05-20T03:40:07;8.50;99.40
6443;DHT22;3254;47.372;8.512;2023-05-20T03:42:35;8.40;99.30
6443;DHT22;3254;47.372;8.512;2023-05-20T03:45:00;8.30;99.90
6443;DHT22;3254;47.372;8.512;2023-05-20T03:47:26;8.30;99.90
6443;DHT22;3254;47.372;8.512;2023-05-20T03:49:52;8.30;99.90
6443;DHT22;3254;47.372;8.512;2023-05-20T03:52:18;8.40;99.90
6443;DHT22;3254;47.372;8.512;2023-05-20T03:54:43;8.70;99.90
6443;DHT22;3254;47.372;8.512;2023-05-20T03:57:09;8.80;99.90
6443;DHT22;3254;47.372;8.512;2023-05-20T03:59:35;8.90;99.90
6443;DHT22;3254;47.372;8.512;2023-05-20T04:02:01;9.00;99.90
6443;DHT22;3254;47.372;8.512;2023-05-20T04:04:27;9.10;99.90
6443;DHT22;3254;47.372;8.512;2023-05-20T04:06:53;9.20;99.90
6443;DHT22;3254;47.372;8.512;2023-05-20T04:09:19;9.20;95.60
6443;DHT22;3254;47.372;8.512;2023-05-20T04:11:44;9.30;92.60
6443;DHT22;3254;47.372;8.512;2023-05-20T04:14:10;9.40;91.00
6443;DHT22;3254;47.372;8.512;2023-05-20T04:16:36;9.50;87.40
6443;DHT22;3254;47.372;8.512;2023-05-20T04:19:02;9.60;77.10
6443;DHT22;3254;47.372;8.512;2023-05-20T04:21:28;9.70;71.40
6443;DHT22;3254;47.372;8.512;2023-05-20T04:23:53;9.80;66.00
6443;DHT22;3254;47.372;8.512;2023-05-20T04:26:19;9.90;64.70
6443;DHT22;3254;47.372;8.512;2023-05-20T04:28:45;10.00;58.60
6443;DHT22;3254;47.372;8.512;2023-05-20T04:31:14;10.10;51.80
6443;DHT22;3254;47.372;8.512;2023-05-20T04:33:40;10.20;47.70
6443;DHT22;3254;47.372;8.512;2023-05-20T04:36:06;10.30;45.20
6443;DHT22;3254;47.372;8.512;2023-05-20T04:38:32;10.40;41.20
6443;DHT22;3254;47.372;8.512;2023-05-20T04:40:58;10.50;38.30
6443;DHT22;3254;47.372;8.512;2023-05-20T04:43:25;10.70;34.80
6443;DHT22;3254;47.372;8.512;2023-05-20T04:45:54;10.80;29.40
6443;DHT22;3254;47.372;8.512;2023-05-20T04:48:20;10.90;26.70
6443;DHT22;3254;47.372;8.512;2023-05-20T04:50:47;11.00;23.80
6443;DHT22;3254;47.372;8.512;2023-05-20T04:53:16;11.00;22.10
6443;DHT22;3254;47.372;8.512;2023-05-20T04:55:42;11.20;18.80
6443;DHT22;3254;47.372;8.512;2023-05-20T04:58:09;11.20;17.10
6443;DHT22;3254;47.372;8.512;2023-05-20T05:00:40;11.30;15.20
6443;DHT22;3254;47.372;8.512;2023-05-20T05:03:07;11.40;13.50
6443;DHT22;3254;47.372;8.512;2023-05-20T05:05:36;11.40;11.40
6443;DHT22;3254;47.372;8.512;2023-05-20T05:08:05;11.40;10.10
6443;DHT22;3254;47.372;8.512;2023-05-20T05:10:31;11.40;9.90
6443;DHT22;3254;47.372;8.512;2023-05-20T05:12:56;11.50;8.60
6443;DHT22;3254;47.372;8.512;2023-05-20T05:15:23;11.70;7.00
6443;DHT22;3254;47.372;8.512;2023-05-20T05:17:48;11.80;4.50
6443;DHT22;3254;47.372;8.512;2023-05-20T05:20:14;12.00;2.50
6443;DHT22;3254;47.372;8.512;2023-05-20T05:22:39;12.20;1.00
6443;DHT22;3254;47.372;8.512;2023-05-20T05:25:07;12.40;1.00
6443;DHT22;3254;47.372;8.512;2023-05-20T05:27:33;12.50;1.00
6443;DHT22;3254;47.372;8.512;2023-05-20T05:29:59;12.50;1.00
6443;DHT22;3254;47.372;8.512;2023-05-20T05:32:25;12.60;1.00
6443;DHT22;3254;47.372;8.512;2023-05-20T05:34:50;12.70;1.00
6443;DHT22;3254;47.372;8.512;2023-05-20T05:37:16;12.90;1.00
6443;DHT22;3254;47.372;8.512;2023-05-20T05:39:41;12.90;1.00
6443;DHT22;3254;47.372;8.512;2023-05-20T05:42:07;13.10;1.00
6443;DHT22;3254;47.372;8.512;2023-05-20T05:44:33;13.10;1.00
6443;DHT22;3254;47.372;8.512;2023-05-20T05:46:58;13.30;1.00
6443;DHT22;3254;47.372;8.512;2023-05-20T05:49:24;13.30;1.00
6443;DHT22;3254;47.372;8.512;2023-05-20T05:51:50;13.40;1.00
6443;DHT22;3254;47.372;8.512;2023-05-20T05:54:16;13.40;1.00
6443;DHT22;3254;47.372;8.512;2023-05-20T05:56:41;13.50;1.00
6443;DHT22;3254;47.372;8.512;2023-05-20T05:59:07;13.50;1.00
6443;DHT22;3254;47.372;8.512;2023-05-20T06:01:33;13.50;1.00
6443;DHT22;3254;47.372;8.512;2023-05-20T06:03:59;13.50;1.00
6443;DHT22;3254;47.372;8.512;2023-05-20T06:06:25;13.50;1.00
6443;DHT22;3254;47.372;8.512;2023-05-20T06:08:50;13.70;1.00
6443;DHT22;3254;47.372;8.512;2023-05-20T06:14:28;14.30;1.00
6443;DHT22;3254;47.372;8.512;2023-05-20T06:16:54;14.50;1.00
6443;DHT22;3254;47.372;8.512;2023-05-20T06:19:19;14.50;1.00
6443;DHT22;3254;47.372;8.512;2023-05-20T06:21:45;14.70;1.00
6443;DHT22;3254;47.372;8.512;2023-05-20T06:24:11;14.90;1.00
6443;DHT22;3254;47.372;8.512;2023-05-20T06:26:36;15.00;1.00
6443;DHT22;3254;47.372;8.512;2023-05-20T06:29:02;14.90;1.00
6443;DHT22;3254;47.372;8.512;2023-05-20T06:31:28;15.20;1.00
6443;DHT22;3254;47.372;8.512;2023-05-20T06:33:54;15.40;1.00
6443;DHT22;3254;47.372;8.512;2023-05-20T06:36:20;15.40;1.00
6443;DHT22;3254;47.372;8.512;2023-05-20T06:38:46;15.40;1.00
6443;DHT22;3254;47.372;8.512;2023-05-20T06:41:11;15.40;1.00
6443;DHT22;3254;47.372;8.512;2023-05-20T06:43:37;15.50;1.00
6443;DHT22;3254;47.372;8.512;2023-05-20T06:46:03;15.40;1.00
6443;DHT22;3254;47.372;8.512;2023-05-20T06:48:28;15.30;1.00
6443;DHT22;3254;47.372;8.512;2023-05-20T06:50:54;15.40;1.00
6443;DHT22;3254;47.372;8.512;2023-05-20T06:53:19;15.10;1.00
6443;DHT22;3254;47.372;8.512;2023-05-20T06:55:45;15.10;1.00
6443;DHT22;3254;47.372;8.512;2023-05-20T06:58:11;14.80;1.00
6443;DHT22;3254;47.372;8.512;2023-05-20T07:00:36;14.80;1.00
6443;DHT22;3254;47.372;8.512;2023-05-20T07:03:03;14.90;1.00
6443;DHT22;3254;47.372;8.512;2023-05-20T07:05:29;15.10;1.00
6443;DHT22;3254;47.372;8.512;2023-05-20T07:07:55;15.20;1.00
6443;DHT22;3254;47.372;8.512;2023-05-20T07:10:21;15.40;1.00
6443;DHT22;3254;47.372;8.512;2023-05-20T07:12:46;15.60;1.00
6443;DHT22;3254;47.372;8.512;2023-05-20T07:15:12;15.90;1.00
6443;DHT22;3254;47.372;8.512;2023-05-20T07:17:38;16.00;1.00
6443;DHT22;3254;47.372;8.512;2023-05-20T07:20:04;16.20;1.00
6443;DHT22;3254;47.372;8.512;2023-05-20T07:22:30;16.40;1.00
6443;DHT22;3254;47.372;8.512;2023-05-20T07:24:55;16.50;1.00
6443;DHT22;3254;47.372;8.512;2023-05-20T07:27:21;16.50;1.00
6443;DHT22;3254;47.372;8.512;2023-05-20T07:29:47;16.60;1.00
6443;DHT22;3254;47.372;8.512;2023-05-20T07:32:12;16.90;1.00
6443;DHT22;3254;47.372;8.512;2023-05-20T07:34:38;17.20;1.00
6443;DHT22;3254;47.372;8.512;2023-05-20T07:37:04;17.20;1.00
6443;DHT22;3254;47.372;8.512;2023-05-20T07:39:30;17.30;1.00
6443;DHT22;3254;47.372;8.512;2023-05-20T07:41:56;17.20;1.00
6443;DHT22;3254;47.372;8.512;2023-05-20T07:44:21;16.90;1.00
6443;DHT22;3254;47.372;8.512;2023-05-20T07:46:48;16.80;1.00
6443;DHT22;3254;47.372;8.512;2023-05-20T07:49:13;16.80;1.00
6443;DHT22;3254;47.372;8.512;2023-05-20T07:51:39;16.90;1.00
6443;DHT22;3254;47.372;8.512;2023-05-20T07:54:05;17.00;1.00
6443;DHT22;3254;47.372;8.512;2023-05-20T07:56:31;17.00;1.00
6443;DHT22;3254;47.372;8.512;2023-05-20T07:58:58;17.00;1.00
6443;DHT22;3254;47.372;8.512;2023-05-20T08:01:25;16.70;1.00
6443;DHT22;3254;47.372;8.512;2023-05-20T08:03:51;16.70;1.00
6443;DHT22;3254;47.372;8.512;2023-05-20T08:06:17;16.60;1.00
6443;DHT22;3254;47.372;8.512;2023-05-20T08:08:45;16.60;1.00
6443;DHT22;3254;47.372;8.512;2023-05-20T08:11:11;16.70;1.00
6443;DHT22;3254;47.372;8.512;2023-05-20T08:13:36;16.70;1.00
6443;DHT22;3254;47.372;8.512;2023-05-20T08:16:02;16.60;1.00
6443;DHT22;3254;47.372;8.512;2023-05-20T08:18:31;16.40;1.00
6443;DHT22;3254;47.372;8.512;2023-05-20T08:20:58;16.30;1.00
6443;DHT22;3254;47.372;8.512;2023-05-20T08:23:24;16.50;1.00
6443;DHT22;3254;47.372;8.512;2023-05-20T08:25:50;16.90;1.00
6443;DHT22;3254;47.372;8.512;2023-05-20T08:28:16;17.00;1.00
6443;DHT22;3254;47.372;8.512;2023-05-20T08:30:41;17.00;1.00
6443;DHT22;3254;47.372;8.512;2023-05-20T08:33:07;16.80;1.00
6443;DHT22;3254;47.372;8.512;2023-05-20T08:35:33;16.80;1.00
6443;DHT22;3254;47.372;8.512;2023-05-20T08:37:58;16.80;1.00
6443;DHT22;3254;47.372;8.512;2023-05-20T08:40:26;16.90;1.00
6443;DHT22;3254;47.372;8.512;2023-05-20T08:42:51;16.80;1.00
6443;DHT22;3254;47.372;8.512;2023-05-20T08:45:18;16.60;1.00
6443;DHT22;3254;47.372;8.512;2023-05-20T08:47:45;16.60;1.00
6443;DHT22;3254;47.372;8.512;2023-05-20T08:50:12;16.50;1.00
6443;DHT22;3254;47.372;8.512;2023-05-20T08:52:42;16.40;1.00
6443;DHT22;3254;47.372;8.512;2023-05-20T08:57:58;16.20;1.00
6443;DHT22;3254;47.372;8.512;2023-05-20T09:00:23;16.10;1.00
6443;DHT22;3254;47.372;8.512;2023-05-20T09:02:53;15.90;1.00
6443;DHT22;3254;47.372;8.512;2023-05-20T09:05:19;16.00;1.00
6443;DHT22;3254;47.372;8.512;2023-05-20T09:07:45;16.30;1.00
6443;DHT22;3254;47.372;8.512;2023-05-20T09:10:11;16.70;1.00
6443;DHT22;3254;47.372;8.512;2023-05-20T09:12:37;17.10;1.00
6443;DHT22;3254;47.372;8.512;2023-05-20T09:15:03;17.40;1.00
6443;DHT22;3254;47.372;8.512;2023-05-20T09:17:29;17.50;1.00
6443;DHT22;3254;47.372;8.512;2023-05-20T09:19:55;17.60;1.00
6443;DHT22;3254;47.372;8.512;2023-05-20T09:22:27;17.60;1.00
6443;DHT22;3254;47.372;8.512;2023-05-20T09:24:54;17.70;1.00
6443;DHT22;3254;47.372;8.512;2023-05-20T09:27:20;17.70;1.00
6443;DHT22;3254;47.372;8.512;2023-05-20T09:29:50;17.60;1.00
6443;DHT22;3254;47.372;8.512;2023-05-20T09:32:16;17.60;1.00
6443;DHT22;3254;47.372;8.512;2023-05-20T09:34:42;18.20;1.00
6443;DHT22;3254;47.372;8.512;2023-05-20T09:37:08;18.60;1.00
6443;DHT22;3254;47.372;8.512;2023-05-20T09:42:29;19.80;1.00
6443;DHT22;3254;47.372;8.512;2023-05-20T09:44:57;19.40;1.00
6443;DHT22;3254;47.372;8.512;2023-05-20T09:47:23;19.20;1.00
6443;DHT22;3254;47.372;8.512;2023-05-20T09:49:51;19.10;1.00
6443;DHT22;3254;47.372;8.512;2023-05-20T09:52:17;19.20;1.00
6443;DHT22;3254;47.372;8.512;2023-05-20T09:54:44;19.40;1.00
6443;DHT22;3254;47.372;8.512;2023-05-20T09:57:10;19.70;1.00
6443;DHT22;3254;47.372;8.512;2023-05-20T09:59:37;20.10;1.00
6443;DHT22;3254;47.372;8.512;2023-05-20T10:02:04;20.20;1.00
6443;DHT22;3254;47.372;8.512;2023-05-20T10:04:32;20.00;1.00
6443;DHT22;3254;47.372;8.512;2023-05-20T10:10:02;20.10;1.00
6443;DHT22;3254;47.372;8.512;2023-05-20T10:15:54;19.80;1.00
6443;DHT22;3254;47.372;8.512;2023-05-20T10:18:49;19.10;1.00
6443;DHT22;3254;47.372;8.512;2023-05-20T10:21:21;19.10;1.00
6443;DHT22;3254;47.372;8.512;2023-05-20T10:23:49;19.50;1.00
6443;DHT22;3254;47.372;8.512;2023-05-20T10:26:16;19.80;1.00
6443;DHT22;3254;47.372;8.512;2023-05-20T10:28:42;20.30;1.00
6443;DHT22;3254;47.372;8.512;2023-05-20T10:31:20;20.00;1.00
6443;DHT22;3254;47.372;8.512;2023-05-20T10:33:46;19.80;1.00
6443;DHT22;3254;47.372;8.512;2023-05-20T10:36:23;19.70;1.00
6443;DHT22;3254;47.372;8.512;2023-05-20T10:38:57;19.70;1.00
6443;DHT22;3254;47.372;8.512;2023-05-20T10:41:24;19.90;1.00
6443;DHT22;3254;47.372;8.512;2023-05-20T10:44:04;20.30;1.00
6443;DHT22;3254;47.372;8.512;2023-05-20T10:46:31;20.40;1.00
6443;DHT22;3254;47.372;8.512;2023-05-20T10:48:57;20.60;1.00
6443;DHT22;3254;47.372;8.512;2023-05-20T10:51:24;20.70;1.00
6443;DHT22;3254;47.372;8.512;2023-05-20T10:53:52;20.90;1.00
6443;DHT22;3254;47.372;8.512;2023-05-20T10:56:21;21.00;1.00
6443;DHT22;3254;47.372;8.512;2023-05-20T10:58:47;21.20;1.00
6443;DHT22;3254;47.372;8.512;2023-05-20T11:01:14;21.40;1.00
6443;DHT22;3254;47.372;8.512;2023-05-20T11:03:40;21.10;1.00
6443;DHT22;3254;47.372;8.512;2023-05-20T11:06:15;20.50;1.00
6443;DHT22;3254;47.372;8.512;2023-05-20T11:08:41;20.10;1.00
6443;DHT22;3254;47.372;8.512;2023-05-20T11:11:07;20.30;1.00
6443;DHT22;3254;47.372;8.512;2023-05-20T11:13:33;20.50;1.00
6443;DHT22;3254;47.372;8.512;2023-05-20T11:16:00;21.00;1.00
6443;DHT22;3254;47.372;8.512;2023-05-20T11:18:26;21.10;1.00
6443;DHT22;3254;47.372;8.512;2023-05-20T11:20:59;20.80;1.00
6443;DHT22;3254;47.372;8.512;2023-05-20T11:23:26;20.70;1.00
6443;DHT22;3254;47.372;8.512;2023-05-20T11:25:54;20.60;1.00
6443;DHT22;3254;47.372;8.512;2023-05-20T11:28:20;20.50;1.00
6443;DHT22;3254;47.372;8.512;2023-05-20T11:30:46;20.50;1.00
6443;DHT22;3254;47.372;8.512;2023-05-20T11:33:13;20.90;1.00
6443;DHT22;3254;47.372;8.512;2023-05-20T11:35:49;21.40;1.00
6443;DHT22;3254;47.372;8.512;2023-05-20T11:38:15;21.60;1.00
6443;DHT22;3254;47.372;8.512;2023-05-20T11:40:54;21.70;1.00
6443;DHT22;3254;47.372;8.512;2023-05-20T11:43:21;21.50;1.00
6443;DHT22;3254;47.372;8.512;2023-05-20T11:45:53;21.90;1.00
6443;DHT22;3254;47.372;8.512;2023-05-20T11:48:19;22.40;1.00
6443;DHT22;3254;47.372;8.512;2023-05-20T11:50:45;23.00;1.00
6443;DHT22;3254;47.372;8.512;2023-05-20T11:53:19;23.60;1.00
6443;DHT22;3254;47.372;8.512;2023-05-20T11:55:50;23.20;1.00
6443;DHT22;3254;47.372;8.512;2023-05-20T11:58:22;23.10;1.00
6443;DHT22;3254;47.372;8.512;2023-05-20T12:00:48;22.90;1.00
6443;DHT22;3254;47.372;8.512;2023-05-20T12:03:14;22.50;1.00
6443;DHT22;3254;47.372;8.512;2023-05-20T12:05:40;22.80;1.00
6443;DHT22;3254;47.372;8.512;2023-05-20T12:08:07;22.70;1.00
6443;DHT22;3254;47.372;8.512;2023-05-20T12:10:33;22.40;1.00
6443;DHT22;3254;47.372;8.512;2023-05-20T12:12:59;22.10;1.00
6443;DHT22;3254;47.372;8.512;2023-05-20T12:15:25;21.60;1.00
6443;DHT22;3254;47.372;8.512;2023-05-20T12:17:52;21.80;1.00
6443;DHT22;3254;47.372;8.512;2023-05-20T12:20:21;22.30;1.00
6443;DHT22;3254;47.372;8.512;2023-05-20T12:22:47;23.20;1.00
6443;DHT22;3254;47.372;8.512;2023-05-20T12:25:15;24.10;1.00
6443;DHT22;3254;47.372;8.512;2023-05-20T12:27:45;24.40;1.00
6443;DHT22;3254;47.372;8.512;2023-05-20T12:30:15;24.30;1.00
6443;DHT22;3254;47.372;8.512;2023-05-20T12:32:42;24.00;1.00
6443;DHT22;3254;47.372;8.512;2023-05-20T12:35:08;24.10;1.00
6443;DHT22;3254;47.372;8.512;2023-05-20T12:37:35;24.10;1.00
6443;DHT22;3254;47.372;8.512;2023-05-20T12:40:01;24.00;1.00
6443;DHT22;3254;47.372;8.512;2023-05-20T12:42:35;24.30;1.00
6443;DHT22;3254;47.372;8.512;2023-05-20T12:45:01;24.30;1.00
6443;DHT22;3254;47.372;8.512;2023-05-20T12:47:27;24.10;1.00
6443;DHT22;3254;47.372;8.512;2023-05-20T12:49:52;23.70;1.00
6443;DHT22;3254;47.372;8.512;2023-05-20T12:52:18;23.60;1.00
6443;DHT22;3254;47.372;8.512;2023-05-20T12:54:44;23.50;1.00
6443;DHT22;3254;47.372;8.512;2023-05-20T12:57:09;23.10;1.00
6443;DHT22;3254;47.372;8.512;2023-05-20T12:59:35;23.00;1.00
6443;DHT22;3254;47.372;8.512;2023-05-20T13:02:01;23.10;1.00
6443;DHT22;3254;47.372;8.512;2023-05-20T13:04:27;23.80;1.00
6443;DHT22;3254;47.372;8.512;2023-05-20T13:06:52;24.20;1.00
6443;DHT22;3254;47.372;8.512;2023-05-20T13:09:18;24.70;1.00
6443;DHT22;3254;47.372;8.512;2023-05-20T13:11:43;24.30;1.00
6443;DHT22;3254;47.372;8.512;2023-05-20T13:14:09;23.60;1.00
6443;DHT22;3254;47.372;8.512;2023-05-20T13:16:35;23.20;1.00
6443;DHT22;3254;47.372;8.512;2023-05-20T13:19:00;22.90;1.00
6443;DHT22;3254;47.372;8.512;2023-05-20T13:21:26;22.90;1.00
6443;DHT22;3254;47.372;8.512;2023-05-20T13:23:52;22.90;1.00
6443;DHT22;3254;47.372;8.512;2023-05-20T13:26:17;22.90;1.00
6443;DHT22;3254;47.372;8.512;2023-05-20T13:28:43;22.80;1.00
6443;DHT22;3254;47.372;8.512;2023-05-20T13:31:09;22.60;1.00
6443;DHT22;3254;47.372;8.512;2023-05-20T13:33:34;22.60;1.00
6443;DHT22;3254;47.372;8.512;2023-05-20T13:36:00;22.50;1.00
6443;DHT22;3254;47.372;8.512;2023-05-20T13:38:25;22.70;1.00
6443;DHT22;3254;47.372;8.512;2023-05-20T13:40:51;22.80;1.00
6443;DHT22;3254;47.372;8.512;2023-05-20T13:43:16;22.70;1.00
6443;DHT22;3254;47.372;8.512;2023-05-20T13:45:43;22.90;1.00
6443;DHT22;3254;47.372;8.512;2023-05-20T13:48:08;23.70;1.00
6443;DHT22;3254;47.372;8.512;2023-05-20T13:50:34;24.60;1.00
6443;DHT22;3254;47.372;8.512;2023-05-20T13:52:59;24.90;1.00
6443;DHT22;3254;47.372;8.512;2023-05-20T13:55:25;25.20;1.00
6443;DHT22;3254;47.372;8.512;2023-05-20T13:57:51;25.00;1.00
6443;DHT22;3254;47.372;8.512;2023-05-20T14:00:19;24.90;1.00
6443;DHT22;3254;47.372;8.512;2023-05-20T14:02:44;24.80;1.00
6443;DHT22;3254;47.372;8.512;2023-05-20T14:05:11;24.50;1.00
6443;DHT22;3254;47.372;8.512;2023-05-20T14:07:37;24.10;1.00
6443;DHT22;3254;47.372;8.512;2023-05-20T14:10:04;23.70;1.00
6443;DHT22;3254;47.372;8.512;2023-05-20T14:12:30;23.30;1.00
6443;DHT22;3254;47.372;8.512;2023-05-20T14:14:55;23.30;1.00
6443;DHT22;3254;47.372;8.512;2023-05-20T14:17:22;23.20;1.00
6443;DHT22;3254;47.372;8.512;2023-05-20T14:19:47;23.00;1.00
6443;DHT22;3254;47.372;8.512;2023-05-20T14:22:13;22.90;1.00
6443;DHT22;3254;47.372;8.512;2023-05-20T14:24:40;22.70;1.00
6443;DHT22;3254;47.372;8.512;2023-05-20T14:27:05;22.60;1.00
6443;DHT22;3254;47.372;8.512;2023-05-20T14:29:31;22.30;1.00
6443;DHT22;3254;47.372;8.512;2023-05-20T14:31:57;22.30;1.00
6443;DHT22;3254;47.372;8.512;2023-05-20T14:34:22;22.30;1.00
6443;DHT22;3254;47.372;8.512;2023-05-20T14:36:48;22.50;1.00
6443;DHT22;3254;47.372;8.512;2023-05-20T14:39:13;22.20;1.00
6443;DHT22;3254;47.372;8.512;2023-05-20T14:41:39;22.30;1.00
6443;DHT22;3254;47.372;8.512;2023-05-20T14:44:05;22.20;1.00
6443;DHT22;3254;47.372;8.512;2023-05-20T14:46:31;21.90;1.00
6443;DHT22;3254;47.372;8.512;2023-05-20T14:48:56;21.70;1.00
6443;DHT22;3254;47.372;8.512;2023-05-20T14:51:22;21.30;1.00
6443;DHT22;3254;47.372;8.512;2023-05-20T14:53:48;21.40;1.00
6443;DHT22;3254;47.372;8.512;2023-05-20T14:56:13;21.20;1.00
6443;DHT22;3254;47.372;8.512;2023-05-20T14:58:39;21.20;1.00
6443;DHT22;3254;47.372;8.512;2023-05-20T15:01:05;21.00;1.00
6443;DHT22;3254;47.372;8.512;2023-05-20T15:03:30;20.80;1.00
6443;DHT22;3254;47.372;8.512;2023-05-20T15:05:56;20.60;1.00
6443;DHT22;3254;47.372;8.512;2023-05-20T15:08:22;20.40;1.00
6443;DHT22;3254;47.372;8.512;2023-05-20T15:10:47;20.20;1.00
6443;DHT22;3254;47.372;8.512;2023-05-20T15:13:13;20.30;1.00
6443;DHT22;3254;47.372;8.512;2023-05-20T15:15:38;20.40;1.00
6443;DHT22;3254;47.372;8.512;2023-05-20T15:18:04;20.50;1.00
6443;DHT22;3254;47.372;8.512;2023-05-20T15:20:29;20.70;1.00
6443;DHT22;3254;47.372;8.512;2023-05-20T15:22:55;20.80;1.00
6443;DHT22;3254;47.372;8.512;2023-05-20T15:25:21;20.80;1.00
6443;DHT22;3254;47.372;8.512;2023-05-20T15:27:46;20.90;1.00
6443;DHT22;3254;47.372;8.512;2023-05-20T15:30:12;21.10;1.00
6443;DHT22;3254;47.372;8.512;2023-05-20T15:32:38;21.20;1.00
6443;DHT22;3254;47.372;8.512;2023-05-20T15:35:04;21.20;1.00
6443;DHT22;3254;47.372;8.512;2023-05-20T15:37:30;21.20;1.00
6443;DHT22;3254;47.372;8.512;2023-05-20T15:39:56;21.20;1.00
6443;DHT22;3254;47.372;8.512;2023-05-20T15:42:22;21.00;1.00
6443;DHT22;3254;47.372;8.512;2023-05-20T15:44:47;20.90;1.00
6443;DHT22;3254;47.372;8.512;2023-05-20T15:47:13;20.80;1.00
6443;DHT22;3254;47.372;8.512;2023-05-20T15:49:38;20.60;1.00
6443;DHT22;3254;47.372;8.512;2023-05-20T15:52:04;20.30;1.00
6443;DHT22;3254;47.372;8.512;2023-05-20T15:54:30;20.20;1.00
6443;DHT22;3254;47.372;8.512;2023-05-20T15:56:56;20.20;1.00
6443;DHT22;3254;47.372;8.512;2023-05-20T15:59:22;20.20;1.00
6443;DHT22;3254;47.372;8.512;2023-05-20T16:01:48;20.20;1.00
6443;DHT22;3254;47.372;8.512;2023-05-20T16:04:13;20.30;1.00
6443;DHT22;3254;47.372;8.512;2023-05-20T16:06:39;20.50;1.00
6443;DHT22;3254;47.372;8.512;2023-05-20T16:09:04;20.50;1.00
6443;DHT22;3254;47.372;8.512;2023-05-20T16:11:30;20.50;1.00
6443;DHT22;3254;47.372;8.512;2023-05-20T16:13:59;20.60;1.00
6443;DHT22;3254;47.372;8.512;2023-05-20T16:16:25;20.70;1.00
6443;DHT22;3254;47.372;8.512;2023-05-20T16:18:51;20.60;1.00
6443;DHT22;3254;47.372;8.512;2023-05-20T16:21:17;20.50;1.00
6443;DHT22;3254;47.372;8.512;2023-05-20T16:23:43;20.40;1.00
6443;DHT22;3254;47.372;8.512;2023-05-20T16:26:08;20.40;1.00